createdAt,value
2022-10-05T00:01:34.574Z,100.00
2022-10-05T00:06:36.188Z,100.00
2022-10-05T00:11:37.727Z,100.00
2022-10-05T00:16:39.346Z,100.00
2022-10-05T00:21:40.962Z,100.00
2022-10-05T00:26:42.545Z,100.00
2022-10-05T00:31:44.147Z,100.00
2022-10-05T00:36:46.032Z,100.00
2022-10-05T00:41:59.729Z,100.00
2022-10-05T00:47:19.733Z,100.00
2022-10-05T00:52:42.784Z,100.00
2022-10-05T00:57:50.276Z,100.00
2022-10-05T01:02:57.539Z,100.00
2022-10-05T01:08:11.035Z,100.00
2022-10-05T01:13:41.003Z,100.00
2022-10-05T01:18:45.461Z,100.00
2022-10-05T01:24:08.746Z,100.00
2022-10-05T01:29:13.127Z,100.00
2022-10-05T01:34:50.825Z,100.00
2022-10-05T01:39:52.203Z,100.00
2022-10-05T01:45:06.006Z,100.00
2022-10-05T01:50:23.548Z,100.00
2022-10-05T01:55:40.902Z,100.00
2022-10-05T02:00:55.309Z,100.00
2022-10-05T02:06:08.771Z,100.00
2022-10-05T02:11:14.454Z,100.00
2022-10-05T02:16:28.567Z,100.00
2022-10-05T02:21:34.047Z,100.00
2022-10-05T02:26:38.869Z,100.00
2022-10-05T02:32:02.782Z,100.00
2022-10-05T02:37:43.445Z,100.00
2022-10-05T02:42:57.226Z,100.00
2022-10-05T02:48:48.380Z,100.00
2022-10-05T02:54:08.022Z,100.00
2022-10-05T02:59:29.636Z,100.00
2022-10-05T03:04:55.547Z,100.00
2022-10-05T03:10:03.538Z,100.00
2022-10-05T03:15:37.360Z,100.00
2022-10-05T03:20:44.848Z,100.00
2022-10-05T03:26:07.393Z,100.00
2022-10-05T03:31:18.393Z,100.00
2022-10-05T03:36:28.024Z,100.00
2022-10-05T03:41:48.584Z,100.00
2022-10-05T03:46:59.297Z,100.00
2022-10-05T03:52:15.625Z,100.00
2022-10-05T03:57:24.098Z,100.00
2022-10-05T04:02:31.113Z,100.00
2022-10-05T04:08:10.739Z,100.00
2022-10-05T04:13:32.025Z,100.00
2022-10-05T04:18:42.096Z,100.00
2022-10-05T04:23:55.924Z,100.00
2022-10-05T04:29:04.480Z,100.00
2022-10-05T04:34:27.457Z,100.00
2022-10-05T04:39:59.557Z,100.00
2022-10-05T04:45:24.096Z,100.00
2022-10-05T04:50:52.065Z,100.00
2022-10-05T04:56:02.905Z,100.00
2022-10-05T05:01:20.131Z,100.00
2022-10-05T05:06:37.386Z,100.00
2022-10-05T05:12:08.042Z,100.00
2022-10-05T05:17:32.652Z,100.00
2022-10-05T05:22:55.681Z,100.00
2022-10-05T05:28:10.896Z,100.00
2022-10-05T05:33:20.913Z,100.00
2022-10-05T05:38:32.150Z,100.00
2022-10-05T05:43:50.292Z,100.00
2022-10-05T05:48:56.246Z,100.00
2022-10-05T05:54:11.796Z,100.00
2022-10-05T05:59:28.764Z,100.00
2022-10-05T06:04:41.281Z,100.00
2022-10-05T06:09:50.188Z,100.00
2022-10-05T06:15:23.558Z,100.00
2022-10-05T06:20:30.865Z,100.00
2022-10-05T06:25:38.634Z,100.00
2022-10-05T06:31:08.845Z,100.00
2022-10-05T06:36:52.792Z,100.00
2022-10-05T06:42:19.014Z,100.00
2022-10-05T06:47:54.217Z,100.00
2022-10-05T06:53:36.435Z,100.00
2022-10-05T06:59:17.016Z,100.00
2022-10-05T07:04:24.694Z,100.00
2022-10-05T07:09:45.080Z,100.00
2022-10-05T07:14:53.310Z,100.00
2022-10-05T07:20:24.790Z,100.00
2022-10-05T07:25:39.447Z,100.00
2022-10-05T07:31:04.606Z,100.00
2022-10-05T07:36:20.712Z,100.00
2022-10-05T07:41:45.501Z,100.00
2022-10-05T07:47:04.493Z,100.00
2022-10-05T07:52:38.724Z,100.00
2022-10-05T07:57:57.713Z,100.00
2022-10-05T08:03:07.008Z,100.00
2022-10-05T08:08:13.254Z,100.00
2022-10-05T08:13:23.512Z,100.00
2022-10-05T08:19:02.466Z,100.00
2022-10-05T08:24:18.746Z,100.00
2022-10-05T08:29:20.173Z,100.00
2022-10-05T08:34:40.839Z,100.00
2022-10-05T08:39:54.652Z,100.00
2022-10-05T08:44:59.064Z,100.00
2022-10-05T08:50:30.935Z,100.00
2022-10-05T08:55:45.492Z,100.00
2022-10-05T09:01:22.154Z,100.00
2022-10-05T09:06:51.815Z,100.00
2022-10-05T09:12:00.564Z,100.00
2022-10-05T09:17:10.829Z,100.00
2022-10-05T09:22:22.159Z,100.00
2022-10-05T09:27:36.702Z,96.02
2022-10-05T09:32:59.180Z,96.22
2022-10-05T09:38:15.184Z,92.22
2022-10-05T09:43:22.611Z,85.99
2022-10-05T09:48:26.741Z,91.49
2022-10-05T09:53:46.544Z,95.61
2022-10-05T09:59:06.321Z,93.59
2022-10-05T10:04:13.856Z,92.70
2022-10-05T10:09:50.763Z,95.71
2022-10-05T10:15:23.671Z,92.61
2022-10-05T10:20:50.119Z,89.58
2022-10-05T10:26:30.107Z,81.92
2022-10-05T10:31:47.848Z,80.11
2022-10-05T10:37:04.760Z,77.80
2022-10-05T10:42:15.384Z,82.39
2022-10-05T10:48:03.425Z,76.54
2022-10-05T10:53:04.884Z,76.97
2022-10-05T10:58:06.297Z,74.90
2022-10-05T11:03:45.908Z,73.11
2022-10-05T11:09:06.358Z,71.94
2022-10-05T11:14:16.792Z,71.05
2022-10-05T11:20:03.063Z,70.84
2022-10-05T11:25:17.837Z,68.87
2022-10-05T11:30:40.986Z,71.06
2022-10-05T11:35:57.734Z,71.69
2022-10-05T11:41:20.391Z,72.97
2022-10-05T11:46:48.755Z,70.53
2022-10-05T11:51:52.914Z,72.03
2022-10-05T11:57:07.771Z,73.44
2022-10-05T12:02:24.277Z,72.00
2022-10-05T12:07:53.867Z,69.79
2022-10-05T12:13:10.194Z,66.04
2022-10-05T12:18:20.924Z,67.81
2022-10-05T12:23:30.780Z,67.20
2022-10-05T12:28:41.950Z,69.88
2022-10-05T12:33:56.980Z,68.86
2022-10-05T12:39:29.316Z,67.07
2022-10-05T12:44:57.241Z,68.64
2022-10-05T12:50:19.866Z,70.32
2022-10-05T12:55:34.062Z,68.41
2022-10-05T13:00:45.806Z,65.17
2022-10-05T13:06:13.710Z,74.93
2022-10-05T13:11:26.313Z,67.83
2022-10-05T13:17:02.767Z,69.57
2022-10-05T13:22:22.088Z,69.39
2022-10-05T13:27:27.888Z,69.68
2022-10-05T13:32:38.811Z,68.95
2022-10-05T13:37:57.332Z,70.68
2022-10-05T13:43:20.622Z,70.78
2022-10-05T13:49:10.234Z,69.70
2022-10-05T13:54:23.377Z,71.38
2022-10-05T13:59:49.038Z,70.04
2022-10-05T14:04:57.616Z,71.29
2022-10-05T14:10:00.151Z,70.05
2022-10-05T14:15:19.656Z,69.63
2022-10-05T14:20:30.864Z,70.73
2022-10-05T14:25:47.426Z,69.60
2022-10-05T14:31:05.748Z,71.40
2022-10-05T14:36:34.233Z,71.77
2022-10-05T14:41:36.277Z,71.13
2022-10-05T14:46:37.918Z,71.87
2022-10-05T14:51:40.170Z,71.63
2022-10-05T14:57:20.697Z,72.58
2022-10-05T15:03:01.467Z,74.14
2022-10-05T15:08:11.976Z,77.00
2022-10-05T15:13:18.367Z,75.99
2022-10-05T15:18:36.823Z,80.12
2022-10-05T15:23:43.494Z,82.09
2022-10-05T15:29:23.911Z,83.79
2022-10-05T15:34:47.209Z,83.57
2022-10-05T15:39:54.616Z,85.60
2022-10-05T15:45:17.919Z,88.39
2022-10-05T15:50:28.221Z,90.78
2022-10-05T15:55:34.199Z,91.37
2022-10-05T16:00:46.666Z,91.46
2022-10-05T16:05:56.504Z,92.81
2022-10-05T16:10:59.331Z,95.34
2022-10-05T16:16:23.446Z,96.89
2022-10-05T16:21:37.080Z,98.72
2022-10-05T16:27:03.722Z,98.57
2022-10-05T16:32:08.230Z,98.14
2022-10-05T16:37:18.401Z,97.50
2022-10-05T16:42:44.658Z,99.97
2022-10-05T16:47:58.110Z,100.00
2022-10-05T16:53:31.685Z,100.00
2022-10-05T16:58:42.470Z,100.00
2022-10-05T17:04:11.906Z,100.00
2022-10-05T17:09:53.913Z,100.00
2022-10-05T17:15:11.349Z,100.00
2022-10-05T17:20:37.935Z,100.00
2022-10-05T17:25:47.634Z,93.86
2022-10-05T17:31:12.599Z,92.24
2022-10-05T17:36:18.004Z,90.83
2022-10-05T17:41:30.814Z,92.09
2022-10-05T17:46:44.030Z,91.97
2022-10-05T17:51:45.471Z,89.80
2022-10-05T17:56:46.916Z,86.73
2022-10-05T18:02:40.617Z,84.07
2022-10-05T18:07:43.688Z,84.86
2022-10-05T18:12:45.154Z,86.35
2022-10-05T18:17:52.354Z,88.63
2022-10-05T18:23:02.876Z,89.60
2022-10-05T18:28:22.817Z,92.03
2022-10-05T18:33:50.445Z,93.59
2022-10-05T18:38:56.040Z,94.13
2022-10-05T18:44:03.482Z,92.78
2022-10-05T18:49:29.614Z,91.75
2022-10-05T18:54:31.068Z,89.77
2022-10-05T18:59:35.258Z,89.82
2022-10-05T19:04:58.278Z,92.21
2022-10-05T19:10:17.203Z,94.07
2022-10-05T19:15:40.541Z,96.57
2022-10-05T19:20:56.953Z,97.44
2022-10-05T19:26:09.850Z,92.88
2022-10-05T19:31:11.386Z,92.65
2022-10-05T19:36:52.066Z,94.55
2022-10-05T19:42:15.888Z,94.33
2022-10-05T19:47:54.487Z,93.63
2022-10-05T19:53:12.679Z,93.59
2022-10-05T19:58:23.994Z,93.42
2022-10-05T20:03:27.908Z,92.74
2022-10-05T20:08:44.829Z,92.85
2022-10-05T20:13:52.074Z,93.03
2022-10-05T20:18:53.751Z,92.15
2022-10-05T20:24:08.236Z,92.19
2022-10-05T20:29:09.731Z,92.30
2022-10-05T20:34:11.250Z,92.63
2022-10-05T20:39:12.970Z,92.67
2022-10-05T20:44:14.801Z,92.81
2022-10-05T20:49:16.307Z,91.84
2022-10-05T20:54:18.039Z,92.45
2022-10-05T20:59:19.593Z,92.83
2022-10-05T21:04:23.862Z,92.74
2022-10-05T21:09:25.377Z,92.58
2022-10-05T21:14:26.881Z,92.48
2022-10-05T21:19:28.517Z,91.93
2022-10-05T21:24:30.011Z,91.99
2022-10-05T21:29:32.180Z,91.79
2022-10-05T21:34:33.829Z,92.08
2022-10-05T21:39:35.386Z,92.71
2022-10-05T21:44:36.911Z,93.39
2022-10-05T21:49:38.441Z,93.90
2022-10-05T21:54:39.976Z,94.38
2022-10-05T21:59:41.822Z,95.03
2022-10-05T22:04:43.301Z,94.91
2022-10-05T22:09:47.380Z,95.54
2022-10-05T22:14:48.874Z,95.80
2022-10-05T22:19:51.228Z,95.96
2022-10-05T22:24:53.612Z,96.46
2022-10-05T22:29:56.001Z,96.54
2022-10-05T22:34:57.546Z,100.00
2022-10-05T22:39:59.095Z,96.33
2022-10-05T22:45:00.611Z,100.00
2022-10-05T22:50:02.274Z,100.00
2022-10-05T22:55:04.150Z,100.00
2022-10-05T23:00:09.351Z,100.00
2022-10-05T23:05:11.781Z,100.00
2022-10-05T23:10:16.331Z,100.00
2022-10-05T23:15:17.896Z,100.00
2022-10-05T23:20:19.505Z,100.00
2022-10-05T23:25:21.007Z,100.00
2022-10-05T23:30:22.529Z,100.00
2022-10-05T23:35:24.031Z,100.00
2022-10-05T23:40:25.766Z,100.00
2022-10-05T23:45:27.471Z,100.00
2022-10-05T23:50:28.936Z,100.00
2022-10-05T23:55:30.756Z,100.00
